Time;durP1;ratioP1;P1;durP2;ratioP2;P2;SDS_P1;SDS_P2;PMS_P1;PMS_P2;Temp;Humidity;BMP_temperature;BMP_pressure;BME280_temperature;BME280_humidity;BME280_pressure;Samples;Min_cycle;Max_cycle;Signal;HPM_P1;HPM_P2
2023/02/03 00:00:05;;;;;;;14.70;10.40;;;;;;;1.52;100.00;99090.69;110317;1276;22225;-67
2023/02/03 00:02:38;;;;;;;16.10;11.60;;;;;;;1.55;100.00;99094.11;110293;1274;22283;-67
2023/02/03 00:05:06;;;;;;;13.50;10.30;;;;;;;1.60;100.00;99093.34;110184;1277;23226;-67
2023/02/03 00:07:36;;;;;;;14.10;10.10;;;;;;;1.63;100.00;99093.41;110287;1276;22188;-67
2023/02/03 00:10:04;;;;;;;14.60;11.40;;;;;;;1.62;100.00;99096.54;110147;1277;22479;-67
2023/02/03 00:12:33;;;;;;;16.90;12.20;;;;;;;1.56;100.00;99101.81;110139;1277;23319;-67
2023/02/03 00:15:01;;;;;;;19.80;15.10;;;;;;;1.51;100.00;99099.59;110138;1276;22431;-67
2023/02/03 00:17:29;;;;;;;19.20;15.70;;;;;;;1.55;100.00;99100.05;110157;1276;22996;-67
2023/02/03 00:19:57;;;;;;;23.40;18.00;;;;;;;1.62;100.00;99099.42;110224;1276;22370;-67
2023/02/03 00:22:25;;;;;;;21.70;16.50;;;;;;;1.66;100.00;99101.47;110364;1276;22209;-67
2023/02/03 00:24:53;;;;;;;15.20;12.40;;;;;;;1.67;100.00;99099.67;110161;1277;22251;-67
2023/02/03 00:27:22;;;;;;;17.00;13.60;;;;;;;1.67;100.00;99100.95;110186;1277;22284;-67
2023/02/03 00:29:59;;;;;;;18.10;14.10;;;;;;;1.64;100.00;99106.36;110249;1274;23032;-67
2023/02/03 00:32:28;;;;;;;16.70;13.50;;;;;;;1.67;100.00;99106.77;110422;1275;22278;-67
2023/02/03 00:34:57;;;;;;;15.40;11.40;;;;;;;1.73;100.00;99108.79;110379;1275;22210;-67
2023/02/03 00:37:25;;;;;;;16.20;11.20;;;;;;;1.79;100.00;99108.08;110417;1275;22229;-67
2023/02/03 00:39:55;;;;;;;14.60;10.80;;;;;;;1.80;100.00;99109.25;110417;1275;22281;-67
2023/02/03 00:42:23;;;;;;;15.10;11.40;;;;;;;1.79;100.00;99104.11;110359;1253;23214;-67
2023/02/03 00:44:52;;;;;;;14.70;11.00;;;;;;;1.77;100.00;99107.12;110377;1273;23073;-67
2023/02/03 00:47:20;;;;;;;14.70;10.60;;;;;;;1.82;100.00;99112.08;110410;1270;22410;-67
2023/02/03 00:49:51;;;;;;;12.90;9.50;;;;;;;1.90;100.00;99107.56;110423;1275;22338;-67
2023/02/03 00:52:19;;;;;;;14.00;9.60;;;;;;;1.92;100.00;99106.86;110389;1275;22258;-67
2023/02/03 00:54:47;;;;;;;14.30;10.60;;;;;;;1.90;100.00;99108.31;110451;1275;22513;-67
2023/02/03 00:57:18;;;;;;;13.60;10.70;;;;;;;1.88;100.00;99109.86;110377;1270;22409;-67
2023/02/03 00:59:46;;;;;;;13.60;10.20;;;;;;;1.88;100.00;99112.88;110342;1268;22289;-67
2023/02/03 01:02:15;;;;;;;15.60;10.20;;;;;;;1.95;100.00;99113.39;110415;1275;22272;-68
2023/02/03 01:04:45;;;;;;;14.90;10.10;;;;;;;2.00;100.00;99116.29;110371;1275;22416;-67
2023/02/03 01:07:16;;;;;;;12.60;10.40;;;;;;;1.97;100.00;99119.55;110432;1267;23023;-68
2023/02/03 01:09:44;;;;;;;15.00;11.50;;;;;;;1.90;100.00;99112.36;110424;1275;23141;-67
2023/02/03 01:12:13;;;;;;;14.60;10.80;;;;;;;1.83;100.00;99114.40;110411;1275;22972;-67
2023/02/03 01:14:41;;;;;;;13.80;10.80;;;;;;;1.80;100.00;99116.92;110337;1275;23438;-67
2023/02/03 01:17:09;;;;;;;14.60;10.50;;;;;;;1.82;100.00;99118.05;110404;1272;22256;-68
2023/02/03 01:19:37;;;;;;;14.70;10.70;;;;;;;1.85;100.00;99119.88;110389;1275;23015;-67
2023/02/03 01:22:05;;;;;;;14.20;10.60;;;;;;;1.81;100.00;99119.89;110230;1273;22193;-67
2023/02/03 01:24:34;;;;;;;15.40;10.90;;;;;;;1.75;100.00;99115.72;110368;1275;22358;-67
2023/02/03 01:27:02;;;;;;;15.00;11.00;;;;;;;1.70;100.00;99116.02;110367;1272;22439;-67
2023/02/03 01:29:31;;;;;;;13.80;10.20;;;;;;;1.68;100.00;99117.56;110349;1275;22429;-67
2023/02/03 01:32:00;;;;;;;15.00;10.80;;;;;;;1.68;100.00;99115.58;110408;1275;22301;-67
2023/02/03 01:34:28;;;;;;;16.00;11.60;;;;;;;1.67;100.00;99115.48;110400;1275;22397;-67
2023/02/03 01:36:56;;;;;;;15.00;11.30;;;;;;;1.60;100.00;99125.77;110365;1273;22391;-67
2023/02/03 01:39:26;;;;;;;14.70;11.40;;;;;;;1.53;100.00;99114.50;110405;1275;22221;-67
2023/02/03 01:41:54;;;;;;;15.90;11.20;;;;;;;1.50;100.00;99120.22;110305;1275;22161;-67
2023/02/03 01:44:46;;;;;;;14.50;11.30;;;;;;;1.54;100.00;99116.46;110350;1275;22444;-67
2023/02/03 01:47:28;;;;;;;16.70;11.80;;;;;;;1.58;100.00;99115.29;110378;1275;22229;-68
2023/02/03 01:49:59;;;;;;;15.30;10.30;;;;;;;1.58;100.00;99116.77;110270;1275;22296;-67
2023/02/03 01:52:27;;;;;;;14.60;10.90;;;;;;;1.50;100.00;99117.91;110428;1275;22284;-67
2023/02/03 01:54:56;;;;;;;15.70;10.90;;;;;;;1.46;100.00;99116.06;110386;1270;23149;-67
2023/02/03 01:57:28;;;;;;;17.00;11.50;;;;;;;1.43;100.00;99115.38;110422;1275;22204;-67
2023/02/03 01:59:57;;;;;;;14.40;10.20;;;;;;;1.45;100.00;99114.68;110166;1275;22899;-67
2023/02/03 02:02:27;;;;;;;14.40;10.80;;;;;;;1.50;100.00;99114.38;110306;1274;23070;-68
2023/02/03 02:05:10;;;;;;;15.20;9.70;;;;;;;1.49;100.00;99118.22;110395;1275;22388;-67
2023/02/03 02:07:40;;;;;;;16.20;11.10;;;;;;;1.39;100.00;99112.10;110051;1269;22374;-67
2023/02/03 02:10:09;;;;;;;15.30;10.70;;;;;;;1.27;100.00;99112.05;110384;1273;22417;-67
2023/02/03 02:12:38;;;;;;;16.30;10.50;;;;;;;1.22;100.00;99112.44;110315;1273;22290;-67
2023/02/03 02:15:07;;;;;;;14.90;10.10;;;;;;;1.28;100.00;99110.77;110246;1275;22266;-67
2023/02/03 02:18:09;;;;;;;15.10;9.80;;;;;;;1.33;100.00;99116.66;110395;1275;22394;-67
2023/02/03 02:21:15;;;;;;;13.20;9.60;;;;;;;1.38;100.00;99113.30;110419;1271;22281;-67
2023/02/03 02:24:15;;;;;;;13.00;10.20;;;;;;;1.34;100.00;99116.62;110403;1275;22223;-67
2023/02/03 02:27:30;;;;;;;16.40;11.00;;;;;;;1.32;100.00;99116.69;110286;1272;22996;-67
2023/02/03 02:30:38;;;;;;;16.10;9.40;;;;;;;1.39;100.00;99118.80;109959;1276;22245;-67
2023/02/03 02:33:41;;;;;;;17.60;10.10;;;;;;;1.44;100.00;99122.80;110248;1274;22189;-67
2023/02/03 02:36:15;;;;;;;15.30;10.90;;;;;;;1.41;100.00;99121.91;110393;1274;23321;-67
2023/02/03 02:39:26;;;;;;;17.70;11.20;;;;;;;1.32;100.00;99118.09;110372;1274;22320;-67
2023/02/03 02:42:01;;;;;;;16.90;11.10;;;;;;;1.28;100.00;99119.79;110045;1275;22240;-67
2023/02/03 02:44:34;;;;;;;17.40;11.20;;;;;;;1.31;100.00;99121.31;110137;1275;22255;-67
2023/02/03 02:47:15;;;;;;;14.70;10.00;;;;;;;1.35;100.00;99123.20;110141;1275;22228;-67
2023/02/03 02:49:45;;;;;;;14.20;10.70;;;;;;;1.32;100.00;99123.06;110211;1275;22730;-67
2023/02/03 02:52:14;;;;;;;17.40;11.30;;;;;;;1.27;100.00;99120.19;110423;1275;22336;-67
2023/02/03 02:54:46;;;;;;;17.30;10.80;;;;;;;1.28;100.00;99121.23;110122;1275;22501;-67
2023/02/03 02:57:14;;;;;;;12.90;9.60;;;;;;;1.29;100.00;99123.15;110159;1269;22334;-67
2023/02/03 02:59:44;;;;;;;12.20;9.30;;;;;;;1.29;100.00;99123.36;110086;1273;22216;-67
2023/02/03 03:02:14;;;;;;;15.50;11.00;;;;;;;1.24;100.00;99124.13;110305;1274;22248;-67
2023/02/03 03:04:43;;;;;;;16.60;11.20;;;;;;;1.23;100.00;99121.05;110402;1275;23107;-67
2023/02/03 03:07:16;;;;;;;14.10;10.20;;;;;;;1.28;100.00;99121.77;110124;1275;22214;-67
2023/02/03 03:09:59;;;;;;;14.70;10.30;;;;;;;1.31;100.00;99118.89;110338;1275;22298;-67
2023/02/03 03:12:34;;;;;;;13.60;10.80;;;;;;;1.30;100.00;99122.36;110415;1275;22406;-67
2023/02/03 03:15:08;;;;;;;15.70;10.60;;;;;;;1.26;100.00;99125.63;110387;1276;22273;-67
2023/02/03 03:17:41;;;;;;;14.20;10.50;;;;;;;1.24;100.00;99124.17;110372;1275;22725;-67
2023/02/03 03:20:17;;;;;;;16.70;10.00;;;;;;;1.27;100.00;99121.09;110415;1275;23008;-67
2023/02/03 03:22:47;;;;;;;16.60;10.70;;;;;;;1.31;100.00;99124.36;110357;1275;22218;-67
2023/02/03 03:25:17;;;;;;;14.90;9.70;;;;;;;1.35;100.00;99123.94;110384;1269;22204;-68
2023/02/03 03:27:52;;;;;;;16.30;10.90;;;;;;;1.33;100.00;99125.88;110409;1275;23290;-67
2023/02/03 03:30:22;;;;;;;15.70;10.30;;;;;;;1.31;100.00;99124.59;110300;1275;22445;-67
2023/02/03 03:32:51;;;;;;;14.00;10.20;;;;;;;1.33;100.00;99124.27;110369;1275;22246;-67
2023/02/03 03:35:19;;;;;;;15.40;10.60;;;;;;;1.34;100.00;99120.83;110187;1274;22335;-67
2023/02/03 03:37:59;;;;;;;16.80;11.20;;;;;;;1.33;100.00;99119.60;110372;1270;23219;-67
2023/02/03 03:40:30;;;;;;;19.30;11.50;;;;;;;1.29;100.00;99122.92;110173;1273;22486;-67
2023/02/03 03:43:10;;;;;;;15.50;10.50;;;;;;;1.24;100.00;99125.51;110138;1274;22347;-67
2023/02/03 03:45:54;;;;;;;16.40;10.80;;;;;;;1.22;100.00;99123.48;110323;1274;22425;-67
2023/02/03 03:48:41;;;;;;;15.50;10.30;;;;;;;1.26;100.00;99120.76;110328;1275;22300;-67
2023/02/03 03:51:27;;;;;;;17.10;11.30;;;;;;;1.21;100.00;99118.20;110405;1276;22291;-67
2023/02/03 03:53:56;;;;;;;16.70;11.20;;;;;;;1.14;100.00;99117.14;110354;1275;22986;-66
2023/02/03 03:56:29;;;;;;;17.60;10.70;;;;;;;1.18;100.00;99112.79;110257;1275;22423;-67
2023/02/03 03:58:57;;;;;;;16.20;10.20;;;;;;;1.23;100.00;99119.39;110187;1276;22935;-67
2023/02/03 04:01:25;;;;;;;16.10;10.20;;;;;;;1.21;100.00;99116.80;110187;1275;22343;-67
2023/02/03 04:03:57;;;;;;;15.00;10.70;;;;;;;1.16;100.00;99115.91;110191;1275;22444;-67
2023/02/03 04:06:25;;;;;;;17.30;11.00;;;;;;;1.12;100.00;99115.02;110497;1274;22244;-67
2023/02/03 04:08:53;;;;;;;17.30;10.80;;;;;;;1.12;100.00;99110.60;110486;1275;23357;-67
2023/02/03 04:14:12;;;;;;;17.70;11.30;;;;;;;1.23;100.00;99122.75;110440;1275;22265;-67
2023/02/03 04:16:40;;;;;;;16.00;11.30;;;;;;;1.14;100.00;99125.25;110417;1275;22286;-67
2023/02/03 04:19:08;;;;;;;18.00;11.80;;;;;;;1.09;100.00;99129.77;110384;1274;22277;-67
2023/02/03 04:21:36;;;;;;;16.50;11.40;;;;;;;1.13;100.00;99134.00;110372;1273;22413;-67
2023/02/03 04:24:05;;;;;;;17.60;10.60;;;;;;;1.15;100.00;99138.43;110423;1275;22691;-67
2023/02/03 04:26:33;;;;;;;16.30;11.20;;;;;;;1.15;100.00;99139.96;110448;1275;22835;-67
2023/02/03 04:29:01;;;;;;;17.90;12.50;;;;;;;1.13;100.00;99136.84;110429;1269;22340;-67
2023/02/03 04:31:30;;;;;;;20.30;12.30;;;;;;;1.10;100.00;99136.70;110415;1274;22452;-67
2023/02/03 04:33:58;;;;;;;16.80;12.10;;;;;;;1.14;100.00;99136.39;110459;1274;22430;-67
2023/02/03 04:36:26;;;;;;;17.10;11.40;;;;;;;1.18;100.00;99140.75;110435;1275;22272;-67
2023/02/03 04:38:55;;;;;;;18.60;11.80;;;;;;;1.18;100.00;99143.48;110416;1268;22828;-67
2023/02/03 04:41:23;;;;;;;19.80;13.20;;;;;;;1.12;100.00;99141.42;110389;1275;22237;-67
2023/02/03 04:43:52;;;;;;;18.40;13.10;;;;;;;1.05;100.00;99142.77;110412;1275;22454;-67
2023/02/03 04:46:20;;;;;;;19.70;13.50;;;;;;;0.98;100.00;99143.75;110221;1271;256877;-67
2023/02/03 04:49:52;;;;;;;22.90;14.70;;;;;;;1.01;100.00;99138.93;104408;1305;545743;-66
2023/02/03 04:52:20;;;;;;;21.30;14.30;;;;;;;1.02;100.00;99143.75;106524;1290;22587;-66
2023/02/03 04:54:48;;;;;;;22.40;14.80;;;;;;;1.04;100.00;99148.77;109430;1290;23021;-67
2023/02/03 04:57:16;;;;;;;21.00;13.70;;;;;;;1.06;100.00;99145.39;109439;1289;22287;-67
2023/02/03 04:59:45;;;;;;;21.70;14.20;;;;;;;1.06;100.00;99145.77;109457;1287;22962;-67
2023/02/03 05:02:13;;;;;;;22.50;13.40;;;;;;;1.03;100.00;99150.96;109508;1290;22320;-67
2023/02/03 05:04:41;;;;;;;24.20;15.10;;;;;;;1.02;100.00;99149.98;109432;1287;224809;-67
2023/02/03 05:07:09;;;;;;;20.50;13.90;;;;;;;1.03;100.00;99151.03;109592;1280;22331;-67
2023/02/03 05:09:38;;;;;;;19.80;13.80;;;;;;;1.03;100.00;99153.71;109649;1287;22287;-67
2023/02/03 05:12:06;;;;;;;19.40;13.30;;;;;;;1.04;100.00;99154.70;109619;1287;22192;-67
2023/02/03 05:14:36;;;;;;;21.30;14.20;;;;;;;1.00;100.00;99160.23;109974;1280;22461;-67
2023/02/03 05:17:04;;;;;;;23.20;14.80;;;;;;;0.95;100.00;99158.09;109957;1275;22211;-67
2023/02/03 05:19:32;;;;;;;21.90;15.00;;;;;;;0.93;100.00;99165.54;109959;1281;22422;-67
2023/02/03 05:22:00;;;;;;;26.30;15.10;;;;;;;0.97;100.00;99164.05;108897;1274;22533;-67
2023/02/03 05:24:29;;;;;;;22.10;13.60;;;;;;;1.00;100.00;99169.14;107395;1281;25381;-66
2023/02/03 05:26:57;;;;;;;21.40;14.20;;;;;;;1.02;100.00;99176.21;108004;1274;23314;-66
2023/02/03 05:29:25;;;;;;;21.30;14.50;;;;;;;1.04;100.00;99177.67;107145;1280;25480;-67
2023/02/03 05:31:54;;;;;;;21.80;14.60;;;;;;;1.03;100.00;99174.56;109887;1273;22430;-67
2023/02/03 05:34:23;;;;;;;22.20;14.60;;;;;;;1.02;100.00;99178.28;109965;1281;22229;-68
2023/02/03 05:36:51;;;;;;;23.70;13.60;;;;;;;1.06;100.00;99180.16;109938;1278;22982;-67
2023/02/03 05:39:19;;;;;;;24.90;15.10;;;;;;;1.12;100.00;99180.17;109920;1272;23245;-67
2023/02/03 05:41:53;;;;;;;21.10;14.30;;;;;;;1.17;100.00;99183.48;109948;1281;22421;-68
2023/02/03 05:44:26;;;;;;;24.80;15.60;;;;;;;1.18;100.00;99185.45;109976;1278;22209;-67
2023/02/03 05:46:56;;;;;;;24.80;15.00;;;;;;;1.14;100.00;99184.59;109935;1281;22288;-67
2023/02/03 05:49:29;;;;;;;23.60;15.20;;;;;;;1.13;100.00;99184.63;109944;1277;22382;-68
2023/02/03 05:52:00;;;;;;;23.10;14.80;;;;;;;1.17;100.00;99189.39;109935;1281;22936;-68
2023/02/03 05:54:29;;;;;;;21.30;14.60;;;;;;;1.21;100.00;99190.59;109943;1281;22997;-67
2023/02/03 05:56:57;;;;;;;22.70;14.70;;;;;;;1.24;100.00;99191.16;109957;1272;22363;-67
2023/02/03 05:59:25;;;;;;;23.40;14.60;;;;;;;1.25;100.00;99192.97;109990;1280;22799;-68
2023/02/03 06:01:53;;;;;;;20.70;14.70;;;;;;;1.23;100.00;99197.95;109967;1281;22240;-68
2023/02/03 06:04:21;;;;;;;23.10;15.50;;;;;;;1.19;100.00;99196.71;109934;1274;22400;-67
2023/02/03 06:06:50;;;;;;;22.30;15.20;;;;;;;1.16;100.00;99202.61;109914;1278;23139;-67
2023/02/03 06:09:18;;;;;;;22.20;14.80;;;;;;;1.16;100.00;99203.44;109922;1280;23110;-68
2023/02/03 06:11:48;;;;;;;21.10;14.80;;;;;;;1.19;100.00;99209.78;109911;1281;22370;-67
2023/02/03 06:14:16;;;;;;;22.20;14.00;;;;;;;1.25;100.00;99209.42;109924;1278;22375;-67
2023/02/03 06:16:44;;;;;;;22.70;14.50;;;;;;;1.28;100.00;99214.42;109927;1274;23377;-67
2023/02/03 06:19:13;;;;;;;23.60;15.00;;;;;;;1.24;100.00;99216.84;109950;1273;22506;-67
2023/02/03 06:21:44;;;;;;;21.20;14.60;;;;;;;1.21;100.00;99214.21;109884;1274;22228;-65
2023/02/03 06:24:12;;;;;;;22.00;14.90;;;;;;;1.24;100.00;99213.52;109941;1279;22460;-67
2023/02/03 06:26:40;;;;;;;22.10;14.10;;;;;;;1.29;100.00;99216.89;109937;1281;23055;-67
2023/02/03 06:29:10;;;;;;;16.80;11.90;;;;;;;1.30;100.00;99222.74;109881;1274;22514;-67
2023/02/03 06:31:38;;;;;;;15.50;10.60;;;;;;;1.28;100.00;99227.99;109874;1275;22216;-67
2023/02/03 06:34:07;;;;;;;16.00;10.20;;;;;;;1.19;100.00;99233.70;109885;1274;22418;-67
2023/02/03 06:36:36;;;;;;;14.30;9.40;;;;;;;1.08;100.00;99231.92;109941;1281;22980;-66
2023/02/03 06:39:04;;;;;;;12.70;7.60;;;;;;;1.06;100.00;99237.98;109955;1281;23145;-68
2023/02/03 06:41:33;;;;;;;12.10;7.90;;;;;;;1.06;100.00;99242.20;109958;1281;22237;-67
2023/02/03 06:44:02;;;;;;;11.10;6.70;;;;;;;1.07;100.00;99247.66;110349;1272;22201;-68
2023/02/03 06:46:32;;;;;;;9.70;6.10;;;;;;;1.09;100.00;99247.20;110364;1276;22434;-67
2023/02/03 06:49:00;;;;;;;9.00;6.20;;;;;;;1.05;100.00;99254.23;110358;1276;22217;-68
2023/02/03 06:51:30;;;;;;;7.50;5.60;;;;;;;0.96;100.00;99255.80;110383;1276;22256;-67
2023/02/03 06:53:58;;;;;;;7.50;5.20;;;;;;;0.94;100.00;99259.75;110350;1271;22322;-67
2023/02/03 06:56:26;;;;;;;6.00;3.90;;;;;;;0.94;100.00;99261.56;110339;1272;22274;-68
2023/02/03 06:58:55;;;;;;;7.10;3.20;;;;;;;0.91;100.00;99261.30;110369;1276;22348;-68
2023/02/03 07:01:24;;;;;;;5.60;3.10;;;;;;;0.81;100.00;99262.23;110240;1270;22959;-68
2023/02/03 07:03:56;;;;;;;5.10;3.00;;;;;;;0.78;100.00;99261.06;110170;1272;22688;-68
2023/02/03 07:06:28;;;;;;;3.40;2.00;;;;;;;0.76;100.00;99265.36;110172;1270;22407;-68
2023/02/03 07:08:56;;;;;;;3.70;2.30;;;;;;;0.65;100.00;99260.02;110316;1271;22218;-68
2023/02/03 07:11:25;;;;;;;3.00;1.90;;;;;;;0.53;100.00;99263.79;110288;1275;22563;-68
2023/02/03 07:13:54;;;;;;;4.10;2.20;;;;;;;0.48;100.00;99266.58;110294;1269;23056;-68
2023/02/03 07:56:38;;;;;;;6.50;4.50;;;;;;;-0.69;100.00;99295.50;104934;1299;546012;-69
2023/02/03 07:59:07;;;;;;;4.80;3.40;;;;;;;-0.57;100.00;99307.08;105673;1290;24264;-69
2023/02/03 08:01:35;;;;;;;4.70;3.40;;;;;;;-0.40;100.00;99303.26;105749;1289;24385;-69
2023/02/03 08:04:04;;;;;;;5.00;2.60;;;;;;;-0.28;100.00;99304.47;109478;1289;22326;-70
2023/02/03 08:06:33;;;;;;;4.30;2.50;;;;;;;-0.16;100.00;99305.54;109392;1286;22245;-69
2023/02/03 08:09:02;;;;;;;5.30;2.90;;;;;;;-0.06;100.00;99309.93;109446;1289;22207;-70
2023/02/03 08:11:31;;;;;;;4.30;2.80;;;;;;;0.03;100.00;99313.51;109258;1284;406495;-69
2023/02/03 08:14:00;;;;;;;3.80;2.60;;;;;;;0.04;100.00;99313.16;109601;1287;22210;-69
2023/02/03 08:16:29;;;;;;;5.80;3.50;;;;;;;0.08;100.00;99315.88;109585;1281;22245;-70
2023/02/03 08:18:57;;;;;;;5.70;3.40;;;;;;;0.16;100.00;99323.64;109771;1277;22203;-70
2023/02/03 08:21:25;;;;;;;6.30;3.90;;;;;;;0.24;100.00;99330.23;109763;1284;22235;-71
2023/02/03 08:23:54;;;;;;;6.70;3.80;;;;;;;0.31;100.00;99330.06;106796;1284;22679;-70
2023/02/03 08:26:22;;;;;;;6.80;3.90;;;;;;;0.36;100.00;99331.15;106301;1284;25435;-69
2023/02/03 08:28:53;;;;;;;6.30;4.10;;;;;;;0.32;100.00;99332.09;106203;1284;25437;-73
2023/02/03 08:31:22;;;;;;;6.50;4.40;;;;;;;0.28;100.00;99333.91;107037;1277;26510;-73
2023/02/03 08:33:50;;;;;;;7.40;4.30;;;;;;;0.33;100.00;99335.83;107550;1274;24545;-73
2023/02/03 08:36:18;;;;;;;6.60;3.70;;;;;;;0.41;100.00;99336.93;107455;1270;26210;-73
2023/02/03 08:38:46;;;;;;;6.20;4.10;;;;;;;0.45;100.00;99342.46;107188;1276;25336;-73
2023/02/03 08:41:16;;;;;;;5.50;3.90;;;;;;;0.46;100.00;99342.91;107315;1272;22524;-73
2023/02/03 08:43:48;;;;;;;5.40;3.90;;;;;;;0.43;100.00;99344.36;107439;1274;25347;-73
2023/02/03 08:46:16;;;;;;;6.10;4.10;;;;;;;0.44;100.00;99347.61;107539;1273;23369;-74
2023/02/03 08:48:45;;;;;;;6.40;4.70;;;;;;;0.45;100.00;99345.96;107401;1274;23355;-74
2023/02/03 08:51:14;;;;;;;7.80;4.50;;;;;;;0.47;100.00;99347.23;107371;1266;22553;-73
2023/02/03 08:53:42;;;;;;;5.40;3.80;;;;;;;0.54;100.00;99348.66;107423;1271;23010;-73
2023/02/03 08:56:15;;;;;;;6.90;4.60;;;;;;;0.49;100.00;99346.27;107449;1253;23350;-72
2023/02/03 08:58:43;;;;;;;7.10;4.30;;;;;;;0.44;100.00;99347.98;107434;1274;25452;-72
2023/02/03 09:01:14;;;;;;;5.30;3.90;;;;;;;0.50;100.00;99347.41;107434;1269;22656;-72
2023/02/03 09:03:42;;;;;;;5.30;3.70;;;;;;;0.54;100.00;99351.88;110313;1276;22416;-73
2023/02/03 09:06:11;;;;;;;6.30;3.60;;;;;;;0.58;100.00;99346.49;110287;1273;22396;-73
2023/02/03 09:08:41;;;;;;;5.70;3.70;;;;;;;0.58;100.00;99346.29;110267;1270;22219;-73
2023/02/03 09:11:12;;;;;;;6.20;3.80;;;;;;;0.59;100.00;99347.52;110256;1269;22493;-73
2023/02/03 09:13:44;;;;;;;6.00;4.50;;;;;;;0.66;100.00;99344.74;109170;1270;22543;-73
2023/02/03 09:16:13;;;;;;;8.40;5.40;;;;;;;0.77;100.00;99348.87;107346;1275;26062;-72
2023/02/03 09:18:42;;;;;;;7.50;5.80;;;;;;;0.85;100.00;99348.95;107372;1276;22563;-72
2023/02/03 09:21:11;;;;;;;9.80;5.70;;;;;;;0.82;100.00;99346.34;107390;1276;25305;-72
2023/02/03 09:24:02;;;;;;;10.00;5.60;;;;;;;0.80;100.00;99346.57;107573;1271;25348;-73
2023/02/03 09:26:31;;;;;;;4.50;3.30;;;;;;;0.86;100.00;99347.77;107554;1274;25343;-73
2023/02/03 09:29:00;;;;;;;5.30;3.40;;;;;;;0.87;100.00;99350.40;107433;1270;22563;-71
2023/02/03 09:31:28;;;;;;;5.70;3.40;;;;;;;0.83;100.00;99349.40;107335;1271;22807;-70
2023/02/03 09:33:58;;;;;;;5.50;3.10;;;;;;;0.76;100.00;99350.60;107375;1276;22534;-70
2023/02/03 09:36:28;;;;;;;4.80;3.30;;;;;;;0.71;100.00;99347.75;107340;1276;25348;-70
2023/02/03 09:38:57;;;;;;;5.60;3.40;;;;;;;0.72;100.00;99348.20;107382;1276;22994;-70
2023/02/03 09:42:02;;;;;;;5.30;3.80;;;;;;;0.78;100.00;99346.26;107549;1269;23568;-71
2023/02/03 09:44:39;;;;;;;4.80;3.50;;;;;;;0.80;100.00;99343.48;107340;1270;25231;-70
2023/02/03 09:47:38;;;;;;;6.10;4.30;;;;;;;0.74;100.00;99341.05;107495;1276;22520;-69
2023/02/03 09:50:11;;;;;;;5.50;3.60;;;;;;;0.69;100.00;99339.16;107306;1269;22552;-68
2023/02/03 09:52:40;;;;;;;5.60;3.50;;;;;;;0.75;100.00;99340.59;110250;1273;23108;-69
2023/02/03 09:55:37;;;;;;;6.00;3.60;;;;;;;0.83;100.00;99346.39;110219;1270;22280;-69
2023/02/03 09:58:06;;;;;;;6.10;3.90;;;;;;;0.92;100.00;99343.52;110141;1269;22978;-69
2023/02/03 10:00:36;;;;;;;5.50;3.80;;;;;;;0.98;100.00;99337.73;110192;1272;22399;-69
2023/02/03 10:03:56;;;;;;;6.10;3.80;;;;;;;0.98;100.00;99339.91;110087;1275;22433;-70
2023/02/03 10:06:32;;;;;;;7.00;3.90;;;;;;;0.97;100.00;99337.57;109835;1282;22833;-70
2023/02/03 10:09:30;;;;;;;5.60;3.80;;;;;;;1.00;100.00;99331.88;109798;1280;22550;-70
2023/02/03 10:12:20;;;;;;;5.30;3.40;;;;;;;1.16;100.00;99333.02;110206;1269;22763;-69
2023/02/03 10:15:16;;;;;;;6.40;3.80;;;;;;;1.24;100.00;99326.71;110280;1276;22887;-69
2023/02/03 10:17:56;;;;;;;5.10;3.50;;;;;;;1.22;100.00;99332.14;110234;1273;23274;-69
2023/02/03 10:20:37;;;;;;;6.90;3.40;;;;;;;1.22;100.00;99330.23;110234;1276;22196;-70
2023/02/03 10:23:11;;;;;;;7.80;3.90;;;;;;;1.28;100.00;99331.51;110241;1273;22213;-69
2023/02/03 10:25:44;;;;;;;6.20;3.70;;;;;;;1.35;100.00;99328.41;110177;1276;22217;-70
2023/02/03 10:28:17;;;;;;;5.90;3.50;;;;;;;1.35;100.00;99324.90;110161;1271;22235;-69
2023/02/03 10:30:57;;;;;;;5.40;3.40;;;;;;;1.31;100.00;99325.70;110320;1276;22940;-70
2023/02/03 10:33:29;;;;;;;4.30;3.00;;;;;;;1.27;100.00;99330.85;110244;1274;22536;-69
2023/02/03 10:36:14;;;;;;;5.90;3.70;;;;;;;1.33;100.00;99328.77;110341;1276;22467;-69
2023/02/03 10:39:09;;;;;;;6.30;3.70;;;;;;;1.39;100.00;99328.42;110248;1272;22345;-69
2023/02/03 10:41:37;;;;;;;5.50;3.60;;;;;;;1.33;100.00;99329.99;110015;1276;22430;-71
2023/02/03 10:44:06;;;;;;;4.70;3.30;;;;;;;1.24;100.00;99323.41;110249;1273;23028;-70
2023/02/03 10:46:36;;;;;;;4.80;2.70;;;;;;;1.29;100.00;99323.98;110203;1275;22316;-69
2023/02/03 10:49:04;;;;;;;4.70;2.70;;;;;;;1.38;100.00;99313.58;110137;1276;22227;-69
2023/02/03 10:51:43;;;;;;;4.70;2.50;;;;;;;1.36;100.00;99308.44;110298;1276;22271;-69
2023/02/03 10:54:28;;;;;;;4.70;2.80;;;;;;;1.35;100.00;99304.90;110201;1276;22469;-69
2023/02/03 10:57:00;;;;;;;4.80;2.90;;;;;;;1.26;100.00;99302.02;110280;1276;22915;-69
2023/02/03 10:59:30;;;;;;;4.00;2.50;;;;;;;1.19;100.00;99300.09;110297;1276;22200;-69
2023/02/03 11:02:07;;;;;;;4.70;2.70;;;;;;;1.19;100.00;99300.29;110239;1276;22943;-70
2023/02/03 11:04:37;;;;;;;4.70;2.60;;;;;;;1.15;100.00;99302.59;110277;1276;22476;-70
2023/02/03 11:07:07;;;;;;;4.70;2.80;;;;;;;1.08;100.00;99303.70;110314;1276;22240;-69
2023/02/03 11:09:37;;;;;;;5.10;2.70;;;;;;;1.08;100.00;99306.71;110278;1276;22795;-69
2023/02/03 11:12:10;;;;;;;4.20;2.90;;;;;;;1.20;100.00;99301.56;110290;1276;22218;-69
2023/02/03 11:14:43;;;;;;;4.80;2.90;;;;;;;1.37;100.00;99297.73;110233;1276;22266;-69
2023/02/03 11:17:17;;;;;;;4.90;2.70;;;;;;;1.53;100.00;99297.61;110330;1276;22238;-69
2023/02/03 11:19:45;;;;;;;4.30;3.00;;;;;;;1.65;100.00;99298.38;110207;1276;23156;-69
2023/02/03 11:22:26;;;;;;;5.90;3.70;;;;;;;1.70;100.00;99297.03;110316;1276;22470;-69
2023/02/03 11:24:54;;;;;;;4.70;2.90;;;;;;;1.73;100.00;99293.73;110314;1276;23521;-69
2023/02/03 11:27:24;;;;;;;5.60;3.30;;;;;;;1.78;100.00;99291.80;110240;1276;22778;-69
2023/02/03 11:30:06;;;;;;;6.40;3.30;;;;;;;1.80;100.00;99283.35;110307;1276;22961;-69
2023/02/03 11:32:36;;;;;;;3.90;2.50;;;;;;;1.77;100.00;99280.59;110229;1276;23061;-69
2023/02/03 11:35:20;;;;;;;3.90;2.30;;;;;;;1.70;100.00;99279.58;110316;1276;22226;-69
2023/02/03 11:37:55;;;;;;;2.80;2.00;;;;;;;1.67;100.00;99276.92;110302;1276;22497;-69
2023/02/03 14:22:26;;;;;;;7.70;3.80;;;;;;;-0.95;100.00;99263.90;104872;1301;558331;-68
2023/02/03 14:24:55;;;;;;;7.00;3.80;;;;;;;-0.71;100.00;99273.67;106591;1289;22990;-68
2023/02/03 14:27:26;;;;;;;6.40;3.50;;;;;;;-0.59;100.00;99271.31;109480;1289;22245;-68
2023/02/03 14:30:10;;;;;;;6.50;3.10;;;;;;;-0.47;100.00;99270.86;109583;1287;23562;-68
2023/02/03 14:32:51;;;;;;;7.50;4.10;;;;;;;-0.37;100.00;99269.46;109896;1279;22194;-68
2023/02/03 14:35:20;;;;;;;6.30;3.60;;;;;;;-0.32;100.00;99270.63;110024;1278;161430;-68
2023/02/03 14:37:51;;;;;;;7.90;4.00;;;;;;;-0.31;100.00;99268.31;110083;1278;22440;-68
2023/02/03 14:40:55;;;;;;;10.60;5.40;;;;;;;-0.29;100.00;99270.27;110577;1273;23025;-69
2023/02/03 14:43:40;;;;;;;11.60;5.40;;;;;;;-0.24;100.00;99266.84;110418;1266;22543;-69
2023/02/03 14:46:23;;;;;;;12.10;5.50;;;;;;;-0.18;100.00;99268.70;108244;1272;24379;-69
2023/02/03 14:49:02;;;;;;;12.10;5.50;;;;;;;-0.17;100.00;99267.83;107734;1273;24310;-69
2023/02/03 14:51:48;;;;;;;11.50;6.30;;;;;;;-0.22;100.00;99267.54;107730;1273;22567;-69
2023/02/03 14:54:15;;;;;;;10.80;6.00;;;;;;;-0.27;100.00;99267.07;107736;1272;22941;-68
2023/02/03 14:57:18;;;;;;;14.40;6.80;;;;;;;-0.23;100.00;99268.36;107736;1274;26615;-68
2023/02/03 15:00:05;;;;;;;8.40;4.50;;;;;;;-0.20;100.00;99265.05;107416;1265;22523;-68
2023/02/03 15:02:32;;;;;;;5.20;2.90;;;;;;;-0.25;100.00;99264.83;107496;1274;22923;-69
2023/02/03 15:05:12;;;;;;;6.40;3.20;;;;;;;-0.29;100.00;99265.10;108019;1273;22643;-69